createdAt,value
2022-09-09T00:02:24.679Z,100363.53
2022-09-09T00:05:00.917Z,100365.44
2022-09-09T00:07:44.298Z,100353.63
2022-09-09T00:10:16.901Z,100350.59
2022-09-09T00:12:58.421Z,100345.34
2022-09-09T00:15:34.523Z,100350.94
2022-09-09T00:18:16.427Z,100354.06
2022-09-09T00:20:56.759Z,100347.63
2022-09-09T00:23:31.053Z,100350.44
2022-09-09T00:26:03.393Z,100348.06
2022-09-09T00:28:33.201Z,100351.75
2022-09-09T00:31:13.844Z,100342.19
2022-09-09T00:33:42.104Z,100347.28
2022-09-09T00:36:16.654Z,100342.22
2022-09-09T00:38:50.171Z,100330.50
2022-09-09T00:41:27.884Z,100345.34
2022-09-09T00:44:12.066Z,100329.94
2022-09-09T00:47:08.399Z,100338.34
2022-09-09T00:50:10.140Z,100340.25
2022-09-09T00:52:58.569Z,100321.63
2022-09-09T00:55:51.348Z,100318.22
2022-09-09T00:58:17.948Z,100318.81
2022-09-09T01:00:53.951Z,100320.31
2022-09-09T01:03:33.986Z,100315.28
2022-09-09T01:06:14.189Z,100311.13
2022-09-09T01:09:12.748Z,100309.03
2022-09-09T01:12:00.574Z,100309.78
2022-09-09T01:14:37.011Z,100311.59
2022-09-09T01:17:25.613Z,100308.19
2022-09-09T01:20:07.890Z,100316.03
2022-09-09T01:23:02.271Z,100324.53
2022-09-09T01:26:01.952Z,100323.44
2022-09-09T01:28:29.961Z,100313.88
2022-09-09T01:31:05.142Z,100318.75
2022-09-09T01:33:38.713Z,100316.69
2022-09-09T01:36:19.006Z,100312.16
2022-09-09T01:38:49.584Z,100313.81
2022-09-09T01:41:18.175Z,100313.81
2022-09-09T01:43:52.936Z,100310.94
2022-09-09T01:46:22.928Z,100302.38
2022-09-09T01:48:52.144Z,100301.91
2022-09-09T01:51:19.073Z,100300.97
2022-09-09T01:53:47.231Z,100294.91
2022-09-09T01:56:35.887Z,100290.19
2022-09-09T01:59:24.227Z,100289.47
2022-09-09T02:02:20.484Z,100294.50
2022-09-09T02:05:36.646Z,100293.41
2022-09-09T02:08:08.895Z,100294.25
2022-09-09T02:10:57.399Z,100282.03
2022-09-09T02:13:37.539Z,100277.50
2022-09-09T02:16:14.175Z,100289.00
2022-09-09T02:18:55.960Z,100282.13
2022-09-09T02:21:32.570Z,100285.22
2022-09-09T02:24:05.459Z,100290.09
2022-09-09T02:26:42.164Z,100287.22
2022-09-09T02:29:15.865Z,100288.31
2022-09-09T02:31:45.201Z,100287.59
2022-09-09T02:34:21.925Z,100283.06
2022-09-09T02:36:50.620Z,100273.69
2022-09-09T02:39:17.362Z,100270.94
2022-09-09T02:41:44.051Z,100270.47
2022-09-09T02:44:17.882Z,100282.81
2022-09-09T02:47:05.794Z,100272.34
2022-09-09T02:49:35.611Z,100270.03
2022-09-09T02:52:09.783Z,100273.00
2022-09-09T02:54:40.900Z,100273.00
2022-09-09T02:57:22.073Z,100264.31
2022-09-09T02:59:50.991Z,100261.94
2022-09-09T03:02:17.807Z,100268.09
2022-09-09T03:04:51.860Z,100261.28
2022-09-09T03:07:22.394Z,100264.06
2022-09-09T03:09:51.045Z,100262.16
2022-09-09T03:12:17.681Z,100268.66
2022-09-09T03:14:46.357Z,100262.19
2022-09-09T03:17:13.556Z,100269.28
2022-09-09T03:19:49.145Z,100264.06
2022-09-09T03:22:15.821Z,100269.03
2022-09-09T03:24:44.174Z,100268.06
2022-09-09T03:27:10.798Z,100260.59
2022-09-09T03:29:38.863Z,100263.50
2022-09-09T03:32:11.044Z,100257.03
2022-09-09T03:34:41.162Z,100266.28
2022-09-09T03:37:10.920Z,100262.69
2022-09-09T03:39:37.816Z,100268.91
2022-09-09T03:42:04.971Z,100269.75
2022-09-09T03:44:32.541Z,100262.44
2022-09-09T03:47:01.568Z,100260.53
2022-09-09T03:49:29.709Z,100267.78
2022-09-09T03:51:58.115Z,100261.53
2022-09-09T03:54:25.958Z,100271.75
2022-09-09T03:56:52.718Z,100266.41
2022-09-09T03:59:21.570Z,100250.25
2022-09-09T04:01:48.435Z,100255.28
2022-09-09T04:04:15.029Z,100255.28
2022-09-09T04:06:41.789Z,100258.00
2022-09-09T04:09:08.414Z,100259.53
2022-09-09T04:11:35.281Z,100251.91
2022-09-09T04:14:02.165Z,100257.03
2022-09-09T04:16:30.431Z,100260.63
2022-09-09T04:18:57.107Z,100257.88
2022-09-09T04:21:24.184Z,100257.03
2022-09-09T04:23:50.942Z,100258.56
2022-09-09T04:26:19.010Z,100266.69
2022-09-09T04:28:45.919Z,100255.75
2022-09-09T04:31:21.182Z,100264.31
2022-09-09T04:33:49.358Z,100262.84
2022-09-09T04:36:19.185Z,100270.94
2022-09-09T04:38:47.008Z,100278.00
2022-09-09T04:41:14.707Z,100271.78
2022-09-09T04:43:44.582Z,100272.09
2022-09-09T04:46:12.517Z,100273.88
2022-09-09T04:48:39.118Z,100281.22
2022-09-09T04:51:11.917Z,100282.31
2022-09-09T04:53:39.069Z,100275.69
2022-09-09T04:56:14.493Z,100284.19
2022-09-09T04:58:45.397Z,100281.94
2022-09-09T05:01:19.201Z,100286.53
2022-09-09T05:03:47.353Z,100289.13
2022-09-09T05:06:22.306Z,100289.44
2022-09-09T05:08:51.750Z,100286.41
2022-09-09T05:11:28.534Z,100296.25
2022-09-09T05:14:02.367Z,100302.31
2022-09-09T05:16:31.781Z,100288.00
2022-09-09T05:18:58.532Z,100300.28
2022-09-09T05:21:27.624Z,100298.75
2022-09-09T05:23:55.081Z,100299.56
2022-09-09T05:26:23.211Z,100294.47
2022-09-09T05:28:52.636Z,100292.81
2022-09-09T05:31:19.895Z,100308.97
2022-09-09T05:33:50.361Z,100299.88
2022-09-09T05:36:19.844Z,100308.31
2022-09-09T05:38:48.561Z,100309.84
2022-09-09T05:41:16.817Z,100305.06
2022-09-09T05:43:45.452Z,100309.13
2022-09-09T05:46:15.203Z,100311.75
2022-09-09T05:48:50.993Z,100310.03
2022-09-09T05:51:22.479Z,100313.38
2022-09-09T05:53:50.004Z,100313.38
2022-09-09T05:56:26.152Z,100318.59
2022-09-09T05:58:55.108Z,100320.97
2022-09-09T06:01:25.333Z,100321.53
2022-09-09T06:03:53.225Z,100323.09
2022-09-09T06:06:32.460Z,100324.16
2022-09-09T06:09:00.207Z,100321.16
2022-09-09T06:11:32.492Z,100329.72
2022-09-09T06:14:00.911Z,100325.19
2022-09-09T06:16:30.646Z,100323.19
2022-09-09T06:18:58.927Z,100330.78
2022-09-09T06:21:28.897Z,100336.44
2022-09-09T06:24:00.190Z,100345.00
2022-09-09T06:26:31.470Z,100343.06
2022-09-09T06:28:59.254Z,100346.44
2022-09-09T06:31:30.124Z,100345.59
2022-09-09T06:34:02.225Z,100346.41
2022-09-09T06:36:33.029Z,100355.81
2022-09-09T06:39:01.151Z,100348.03
2022-09-09T06:41:30.141Z,100346.69
2022-09-09T06:43:57.630Z,100348.44
2022-09-09T06:46:34.060Z,100354.13
2022-09-09T06:49:01.913Z,100348.06
2022-09-09T06:51:33.455Z,100351.41
2022-09-09T06:54:03.093Z,100358.16
2022-09-09T06:56:37.388Z,100356.25
2022-09-09T06:59:09.586Z,100356.63
2022-09-09T07:01:40.793Z,100360.28
2022-09-09T07:04:12.062Z,100356.84
2022-09-09T07:06:47.059Z,100368.38
2022-09-09T07:09:18.051Z,100367.63
2022-09-09T07:11:50.317Z,100371.00
2022-09-09T07:14:18.681Z,100366.19
2022-09-09T07:16:48.623Z,100366.47
2022-09-09T07:19:17.607Z,100366.22
2022-09-09T07:21:46.090Z,100371.88
2022-09-09T07:24:15.287Z,100370.19
2022-09-09T07:26:43.217Z,100376.94
2022-09-09T07:29:09.874Z,100383.41
2022-09-09T07:31:38.845Z,100386.03
2022-09-09T07:34:09.645Z,100383.28
2022-09-09T07:36:41.463Z,100386.22
2022-09-09T07:39:14.504Z,100386.88
2022-09-09T07:41:50.086Z,100390.56
2022-09-09T07:44:25.800Z,100393.09
2022-09-09T07:47:08.995Z,100391.72
2022-09-09T07:49:40.050Z,100400.84
2022-09-09T07:52:08.536Z,100394.88
2022-09-09T07:54:36.452Z,100404.44
2022-09-09T07:57:05.483Z,100406.78
2022-09-09T07:59:35.066Z,100401.69
2022-09-09T08:02:02.964Z,100410.25
2022-09-09T08:04:32.431Z,100412.88
2022-09-09T08:07:02.019Z,100409.66
2022-09-09T08:09:30.537Z,100415.88
2022-09-09T08:12:34.911Z,100418.38
2022-09-09T08:15:03.764Z,100422.00
2022-09-09T08:17:33.870Z,100417.03
2022-09-09T08:20:06.070Z,100414.84
2022-09-09T08:22:33.597Z,100421.25
2022-09-09T08:25:00.298Z,100419.84
2022-09-09T08:27:27.035Z,100410.81
2022-09-09T08:29:54.875Z,100426.84
2022-09-09T08:32:21.639Z,100418.44
2022-09-09T08:34:54.516Z,100424.56
2022-09-09T08:37:23.154Z,100420.41
2022-09-09T08:39:54.022Z,100421.38
2022-09-09T08:42:36.555Z,100418.47
2022-09-09T08:45:18.382Z,100423.69
2022-09-09T08:47:48.163Z,100432.97
2022-09-09T08:50:28.213Z,100431.72
2022-09-09T08:53:09.303Z,100434.50
2022-09-09T08:55:42.889Z,100439.59
2022-09-09T08:58:17.084Z,100446.34
2022-09-09T09:01:17.381Z,100437.91
2022-09-09T09:04:22.378Z,100434.75
2022-09-09T09:07:10.458Z,100443.31
2022-09-09T09:09:42.073Z,100450.22
2022-09-09T09:12:18.831Z,100449.09
2022-09-09T09:14:48.460Z,100454.84
2022-09-09T09:17:26.393Z,100450.34
2022-09-09T09:19:54.884Z,100449.81
2022-09-09T09:22:48.840Z,100457.75
2022-09-09T09:25:18.956Z,100458.88
2022-09-09T09:28:06.116Z,100459.00
2022-09-09T09:30:40.849Z,100459.66
2022-09-09T09:33:19.119Z,100458.97
2022-09-09T09:35:46.784Z,100459.75
2022-09-09T09:41:10.747Z,100469.81
2022-09-09T09:43:40.977Z,100467.88
2022-09-09T09:46:26.763Z,100472.84
2022-09-09T09:49:03.086Z,100470.75
2022-09-09T09:51:33.263Z,100476.53
2022-09-09T09:54:14.933Z,100477.69
2022-09-09T09:56:44.518Z,100481.59
2022-09-09T09:59:39.311Z,100477.16
2022-09-09T10:02:17.887Z,100481.97
2022-09-09T10:04:47.568Z,100481.13
2022-09-09T10:07:20.612Z,100482.56
2022-09-09T10:09:54.361Z,100486.78
2022-09-09T10:12:35.618Z,100490.59
2022-09-09T10:15:30.139Z,100483.84
2022-09-09T10:18:32.521Z,100484.75
2022-09-09T10:21:01.859Z,100491.00
2022-09-09T10:23:28.345Z,100485.50
2022-09-09T10:26:17.253Z,100491.34
2022-09-09T10:29:06.637Z,100488.22
2022-09-09T10:31:42.885Z,100495.72
2022-09-09T10:34:32.480Z,100487.94
2022-09-09T10:37:03.747Z,100488.22
2022-09-09T10:39:43.193Z,100492.03
2022-09-09T10:42:20.311Z,100491.53
2022-09-09T10:45:38.350Z,100498.41
2022-09-09T10:48:21.790Z,100501.41
2022-09-09T10:51:12.029Z,100510.25
2022-09-09T10:53:52.929Z,100507.50
2022-09-09T10:56:22.593Z,100512.94
2022-09-09T10:59:02.136Z,100517.69
2022-09-09T11:01:41.495Z,100521.50
2022-09-09T11:04:23.136Z,100517.00
2022-09-09T11:06:53.620Z,100529.72
2022-09-09T11:09:24.313Z,100524.91
2022-09-09T11:11:55.414Z,100534.78
2022-09-09T11:14:28.685Z,100528.50
2022-09-09T11:17:03.093Z,100538.44
2022-09-09T11:19:36.809Z,100530.38
2022-09-09T11:22:16.871Z,100543.13
2022-09-09T11:25:11.307Z,100547.66
2022-09-09T11:27:55.243Z,100542.00
2022-09-09T11:30:53.841Z,100539.97
2022-09-09T11:33:38.604Z,100550.28
2022-09-09T11:36:35.686Z,100558.03
2022-09-09T11:39:08.051Z,100548.84
2022-09-09T11:41:38.147Z,100556.84
2022-09-09T11:44:21.510Z,100559.63
2022-09-09T11:46:53.079Z,100556.50
2022-09-09T11:49:29.736Z,100562.94
2022-09-09T11:51:56.314Z,100568.59
2022-09-09T11:54:32.347Z,100563.19
2022-09-09T11:56:59.505Z,100564.00
2022-09-09T11:59:33.832Z,100565.44
2022-09-09T12:02:00.410Z,100571.91
2022-09-09T12:04:26.997Z,100578.44
2022-09-09T12:06:55.613Z,100575.66
2022-09-09T12:09:33.479Z,100572.63
2022-09-09T12:12:24.997Z,100568.63
2022-09-09T12:15:18.812Z,100575.72
2022-09-09T12:17:54.457Z,100574.25
2022-09-09T12:20:36.996Z,100575.56
2022-09-09T12:23:43.589Z,100579.16
2022-09-09T12:26:41.027Z,100580.66
2022-09-09T12:29:20.072Z,100578.03
2022-09-09T12:32:03.092Z,100582.69
2022-09-09T12:34:45.790Z,100573.59
2022-09-09T12:37:46.206Z,100571.34
2022-09-09T12:40:27.868Z,100570.56
2022-09-09T12:42:56.173Z,100579.50
2022-09-09T12:45:26.300Z,100577.56
2022-09-09T12:48:01.502Z,100580.91
2022-09-09T12:50:44.581Z,100583.75
2022-09-09T12:53:26.520Z,100585.03
2022-09-09T12:55:57.884Z,100585.25
2022-09-09T12:58:26.103Z,100587.06
2022-09-09T13:00:57.111Z,100586.34
2022-09-09T13:03:24.350Z,100586.47
2022-09-09T13:05:51.539Z,100579.41
2022-09-09T13:08:21.520Z,100585.06
2022-09-09T13:11:00.141Z,100581.91
2022-09-09T13:13:36.070Z,100581.72
2022-09-09T13:16:06.581Z,100584.53
2022-09-09T13:18:36.979Z,100577.09
2022-09-09T13:21:04.123Z,100570.16
2022-09-09T13:23:33.167Z,100579.25
2022-09-09T13:26:02.637Z,100582.19
2022-09-09T13:28:33.839Z,100571.13
2022-09-09T13:31:04.316Z,100575.28
2022-09-09T13:33:38.143Z,100569.25
2022-09-09T13:36:10.113Z,100572.06
2022-09-09T13:38:59.476Z,100574.53
2022-09-09T13:41:45.262Z,100569.03
2022-09-09T13:44:28.333Z,100561.41
2022-09-09T13:47:24.280Z,100562.59
2022-09-09T13:49:50.956Z,100573.47
2022-09-09T13:52:19.866Z,100567.56
2022-09-09T13:54:52.051Z,100573.53
2022-09-09T13:57:26.741Z,100573.44
2022-09-09T14:00:06.833Z,100570.78
2022-09-09T14:02:34.857Z,100574.91
2022-09-09T14:05:01.699Z,100572.63
2022-09-09T14:07:30.698Z,100576.28
2022-09-09T14:09:57.472Z,100578.09
2022-09-09T14:12:24.970Z,100584.69
2022-09-09T14:14:51.947Z,100574.28
2022-09-09T14:17:18.509Z,100579.59
2022-09-09T14:19:48.354Z,100582.38
2022-09-09T14:22:15.513Z,100586.53
2022-09-09T14:24:42.177Z,100573.09
2022-09-09T14:27:08.845Z,100580.59
2022-09-09T14:29:35.389Z,100575.66
2022-09-09T14:32:04.361Z,100584.06
2022-09-09T14:34:33.342Z,100570.53
2022-09-09T14:37:00.139Z,100569.66
2022-09-09T14:39:27.229Z,100565.34
2022-09-09T14:41:53.876Z,100568.19
2022-09-09T14:44:20.612Z,100571.69
2022-09-09T14:46:47.262Z,100570.78
2022-09-09T14:49:13.883Z,100576.31
2022-09-09T14:51:40.565Z,100563.44
2022-09-09T14:54:07.399Z,100565.41
2022-09-09T14:56:37.956Z,100576.78
2022-09-09T14:59:04.975Z,100576.31
2022-09-09T15:01:33.128Z,100577.63
2022-09-09T15:04:01.805Z,100580.09
2022-09-09T15:06:30.974Z,100577.66
2022-09-09T15:09:00.386Z,100567.06
2022-09-09T15:11:32.969Z,100573.03
2022-09-09T15:13:59.703Z,100576.16
2022-09-09T15:16:28.976Z,100569.91
2022-09-09T15:18:58.132Z,100575.19
2022-09-09T15:21:27.481Z,100579.63
2022-09-09T15:23:54.606Z,100576.94
2022-09-09T15:26:21.856Z,100568.25
2022-09-09T15:28:50.722Z,100568.56
2022-09-09T15:31:23.178Z,100583.69
2022-09-09T15:34:04.342Z,100580.22
2022-09-09T15:36:37.123Z,100582.53
2022-09-09T15:39:06.266Z,100584.38
2022-09-09T15:41:33.421Z,100580.22
2022-09-09T15:44:03.893Z,100592.69
2022-09-09T15:46:33.275Z,100593.72
2022-09-09T15:49:11.781Z,100588.63
2022-09-09T15:51:44.554Z,100590.78
2022-09-09T15:54:14.392Z,100586.13
2022-09-09T15:56:41.812Z,100594.16
2022-09-09T15:59:08.453Z,100594.94
2022-09-09T16:01:36.473Z,100590.28
2022-09-09T16:04:03.621Z,100586.59
2022-09-09T16:06:30.725Z,100585.59
2022-09-09T16:08:59.133Z,100590.88
2022-09-09T16:11:38.216Z,100582.97
2022-09-09T16:14:06.317Z,100582.81
2022-09-09T16:16:33.399Z,100580.56
2022-09-09T16:19:06.751Z,100585.81
2022-09-09T16:21:36.221Z,100590.72
2022-09-09T16:24:03.929Z,100587.66
2022-09-09T16:26:33.215Z,100589.47
2022-09-09T16:29:01.071Z,100593.94
2022-09-09T16:31:29.357Z,100599.38
2022-09-09T16:33:56.763Z,100592.28
2022-09-09T16:36:28.463Z,100597.38
2022-09-09T16:39:00.605Z,100599.38
2022-09-09T16:41:29.768Z,100598.63
2022-09-09T16:44:03.320Z,100609.59
2022-09-09T16:46:31.685Z,100613.00
2022-09-09T16:48:59.485Z,100620.69
2022-09-09T16:51:35.831Z,100618.66
2022-09-09T16:54:05.008Z,100616.50
2022-09-09T16:56:34.952Z,100610.56
2022-09-09T16:59:03.578Z,100604.97
2022-09-09T17:01:33.863Z,100612.50
2022-09-09T17:04:03.469Z,100618.13
2022-09-09T17:06:31.713Z,100614.41
2022-09-09T17:09:00.598Z,100624.53
2022-09-09T17:11:27.121Z,100626.38
2022-09-09T17:13:55.559Z,100633.63
2022-09-09T17:16:24.583Z,100625.31
2022-09-09T17:18:52.744Z,100631.44
2022-09-09T17:21:21.959Z,100629.19
2022-09-09T17:23:51.365Z,100624.34
2022-09-09T17:26:20.577Z,100629.63
2022-09-09T17:28:47.267Z,100621.88
2022-09-09T17:31:16.736Z,100632.00
2022-09-09T17:33:46.991Z,100631.22
2022-09-09T17:36:16.722Z,100634.81
2022-09-09T17:38:43.654Z,100647.19
2022-09-09T17:41:17.289Z,100643.00
2022-09-09T17:43:44.382Z,100655.34
2022-09-09T17:46:22.639Z,100649.03
2022-09-09T17:48:51.409Z,100662.31
2022-09-09T17:51:28.389Z,100664.41
2022-09-09T17:53:56.977Z,100663.03
2022-09-09T17:56:29.188Z,100661.50
2022-09-09T17:58:55.780Z,100648.47
2022-09-09T18:01:27.808Z,100656.94
2022-09-09T18:03:57.381Z,100653.88
2022-09-09T18:06:28.049Z,100656.69
2022-09-09T18:09:01.368Z,100654.88
2022-09-09T18:11:38.623Z,100666.94
2022-09-09T18:14:06.007Z,100658.06
2022-09-09T18:16:35.992Z,100661.38
2022-09-09T18:19:05.627Z,100661.81
2022-09-09T18:21:34.145Z,100656.81
2022-09-09T18:24:07.589Z,100657.94
2022-09-09T18:26:35.459Z,100649.06
2022-09-09T18:29:06.678Z,100650.28
2022-09-09T18:31:34.319Z,100654.56
2022-09-09T18:34:03.831Z,100660.44
2022-09-09T18:36:35.110Z,100659.56
2022-09-09T18:39:03.691Z,100657.50
2022-09-09T18:41:32.716Z,100664.97
2022-09-09T18:44:02.440Z,100663.56
2022-09-09T18:46:32.767Z,100666.91
2022-09-09T18:49:02.139Z,100660.09
2022-09-09T18:51:29.909Z,100657.06
2022-09-09T18:54:02.937Z,100664.53
2022-09-09T18:56:30.538Z,100660.53
2022-09-09T18:58:59.367Z,100657.34
2022-09-09T19:01:27.439Z,100671.84
2022-09-09T19:03:54.466Z,100668.53
2022-09-09T19:06:26.480Z,100672.38
2022-09-09T19:08:57.486Z,100660.63
2022-09-09T19:11:27.920Z,100667.69
2022-09-09T19:14:00.248Z,100669.75
2022-09-09T19:16:29.405Z,100672.09
2022-09-09T19:18:58.736Z,100671.41
2022-09-09T19:21:31.011Z,100675.25
2022-09-09T19:24:06.627Z,100678.03
2022-09-09T19:26:40.439Z,100683.56
2022-09-09T19:29:10.079Z,100676.91
2022-09-09T19:31:37.710Z,100680.94
2022-09-09T19:34:04.872Z,100686.19
2022-09-09T19:36:31.563Z,100680.75
2022-09-09T19:38:58.661Z,100686.13
2022-09-09T19:41:27.430Z,100685.69
2022-09-09T19:44:01.710Z,100679.88
2022-09-09T19:46:30.361Z,100682.06
2022-09-09T19:48:58.082Z,100682.06
2022-09-09T19:51:26.796Z,100681.25
2022-09-09T19:53:58.211Z,100680.72
2022-09-09T19:56:27.616Z,100679.75
2022-09-09T19:58:54.610Z,100682.75
2022-09-09T20:01:22.491Z,100683.19
2022-09-09T20:03:52.227Z,100673.88
2022-09-09T20:06:21.723Z,100670.59
2022-09-09T20:08:48.549Z,100673.22
2022-09-09T20:11:16.128Z,100680.13
2022-09-09T20:13:43.588Z,100683.47
2022-09-09T20:16:16.942Z,100689.41
2022-09-09T20:18:46.081Z,100689.78
2022-09-09T20:21:16.049Z,100695.31
2022-09-09T20:23:46.519Z,100687.69
2022-09-09T20:26:17.488Z,100697.50
2022-09-09T20:28:45.121Z,100693.19
2022-09-09T20:31:20.381Z,100691.75
2022-09-09T20:33:48.146Z,100690.81
2022-09-09T20:36:24.805Z,100681.38
2022-09-09T20:38:59.688Z,100678.28
2022-09-09T20:41:29.441Z,100673.00
2022-09-09T20:44:01.665Z,100674.47
2022-09-09T20:46:33.081Z,100669.06
2022-09-09T20:49:03.092Z,100668.22
2022-09-09T20:51:33.157Z,100675.31
2022-09-09T20:54:06.675Z,100683.59
2022-09-09T20:56:37.592Z,100686.66
2022-09-09T20:59:05.638Z,100693.69
2022-09-09T21:01:32.660Z,100696.28
2022-09-09T21:04:06.661Z,100699.97
2022-09-09T21:06:33.244Z,100704.25
2022-09-09T21:08:59.822Z,100699.84
2022-09-09T21:11:26.643Z,100696.53
2022-09-09T21:13:53.342Z,100696.38
2022-09-09T21:16:21.113Z,100695.06
2022-09-09T21:18:50.670Z,100692.16
2022-09-09T21:21:19.216Z,100691.19
2022-09-09T21:23:45.861Z,100696.03
2022-09-09T21:26:12.951Z,100691.59
2022-09-09T21:28:40.064Z,100684.81
2022-09-09T21:31:07.220Z,100699.72
2022-09-09T21:33:34.598Z,100686.13
2022-09-09T21:36:06.488Z,100691.84
2022-09-09T21:38:33.405Z,100702.94
2022-09-09T21:41:05.100Z,100701.28
2022-09-09T21:43:32.368Z,100695.06
2022-09-09T21:45:59.448Z,100700.41
2022-09-09T21:48:26.293Z,100695.44
2022-09-09T21:50:53.309Z,100701.06
2022-09-09T21:53:20.406Z,100703.69
2022-09-09T21:55:51.946Z,100702.47
2022-09-09T21:58:18.512Z,100699.00
2022-09-09T22:00:46.566Z,100700.81
2022-09-09T22:03:14.904Z,100699.41
2022-09-09T22:05:43.106Z,100709.06
2022-09-09T22:08:11.964Z,100707.13
2022-09-09T22:10:40.637Z,100715.50
2022-09-09T22:13:07.620Z,100711.38
2022-09-09T22:15:35.050Z,100719.09
2022-09-09T22:18:03.526Z,100712.06
2022-09-09T22:20:33.348Z,100711.94
2022-09-09T22:23:00.939Z,100715.25
2022-09-09T22:25:28.598Z,100707.84
2022-09-09T22:27:56.254Z,100701.63
2022-09-09T22:30:22.980Z,100697.09
2022-09-09T22:32:53.897Z,100698.06
2022-09-09T22:35:20.464Z,100690.06
2022-09-09T22:37:47.333Z,100686.47
2022-09-09T22:40:14.443Z,100684.22
2022-09-09T22:42:41.760Z,100676.94
2022-09-09T22:45:13.187Z,100673.22
2022-09-09T22:47:42.695Z,100665.47
2022-09-09T22:50:09.967Z,100671.69
2022-09-09T22:52:37.017Z,100661.19
2022-09-09T22:55:04.018Z,100662.25
2022-09-09T22:57:31.103Z,100668.09
2022-09-09T22:59:57.650Z,100660.34
2022-09-09T23:02:26.436Z,100660.47
2022-09-09T23:04:53.045Z,100664.44
2022-09-09T23:07:20.515Z,100653.06
2022-09-09T23:09:47.749Z,100663.41
2022-09-09T23:12:14.816Z,100653.56
2022-09-09T23:14:41.487Z,100653.56
2022-09-09T23:17:08.741Z,100655.34
2022-09-09T23:19:37.224Z,100649.78
2022-09-09T23:22:04.126Z,100646.84
2022-09-09T23:24:30.674Z,100643.97
2022-09-09T23:26:57.228Z,100644.22
2022-09-09T23:29:23.855Z,100641.00
2022-09-09T23:31:50.391Z,100635.44
2022-09-09T23:34:16.937Z,100630.28
2022-09-09T23:36:43.622Z,100634.09
2022-09-09T23:39:11.793Z,100630.94
2022-09-09T23:41:40.244Z,100629.88
2022-09-09T23:44:07.619Z,100618.84
2022-09-09T23:46:35.208Z,100625.75
2022-09-09T23:49:02.643Z,100628.97
2022-09-09T23:51:30.635Z,100634.69
2022-09-09T23:54:00.514Z,100630.97
2022-09-09T23:56:39.779Z,100639.69
2022-09-09T23:59:07.476Z,100635.94
